Terminal Aerodrome Forecast
Issued by NWS

Home | Current Version | Previous Version | Text Only | Print | Product List | Glossary On
Versions: 1 2 3 4 5 6 7 8 9 10 11 12 13 14 15 16 17 18 19 20 21 22
000
FTUS43 KDVN 270400 AAB
TAFCID
TAF AMD
KCID 270435Z 2705/2724 VRB02KT 4SM BR SCT025
      TEMPO 2705/2709 2SM BR BKN025
     FM271100 29008KT P6SM SKC
     FM271500 31016G22KT P6SM SCT050
     FM271800 31022G32KT P6SM SCT060=

USA.gov is the U.S. government's official web portal to all federal, state and local government web resources and services.